Atlanta, GA (30314)

7:18 PM EST on February 06, 2016 (GMT -0500)
Georgia Tech Campus Recreation Center WeatherSTEM | | Change Station
CLOSE
Current Station
Personal Weather Station
Location: Atlanta, GA
Elevation: 990 ft
Nearby Weather Stations

Elev 990 ft 33.77 °N, 84.40 °W | Updated 6 minutes ago

Mostly Cloudy
Mostly Cloudy
46.5 °F
Feels Like 46 °F
N
3.0
Wind Variable Wind from NNE
Gusts 9.0 mph

Today
High -- | Low -- °F
--% Chance of Precip.
Yesterday
High -- | Low -- °F
Precip. -- in
Pressure 30.25 in
Visibility 10.0 miles
Clouds Scattered Clouds 8000 ft
Windchill 46 °F
Dew Point 20 °F
Humidity 35%
Rainfall 0.00 in
Snow Depth Not available.
7:30 AM 6:13 PM
Waning Crescent, 3% visible
METAR KFTY 062353Z 32003KT 10SM SCT080 08/M08 A3024 RMK AO2 SLP243 T00781083 10111 20072 58001
Pressure 30.25 in
Visibility 10.0 miles
Clouds Scattered Clouds 8000 ft
Windchill 46 °F
Dew Point 20 °F
Humidity 35%
Rainfall 0.00 in
Snow Depth Not available.
7:30 AM 6:13 PM
Waning Crescent, 3% visible
METAR KFTY 062353Z 32003KT 10SM SCT080 08/M08 A3024 RMK AO2 SLP243 T00781083 10111 20072 58001

10-Day Weather Forecast

Almanac

Astronomy

Feb. 06, 2016 Rise Set
Actual Time
Civil Twilight
Nautical Twilight
Astronomical Twilight
Moon
Length of Visible Light
Length of Day
Tomorrow will be .
, % of the Moon is Illuminated

Today's Extremes

State Highs State Lows

Community

WunderPhotos

Upload Photos

1,891,105 photos uploaded!

WunderBlog® & News

Nearby

Air Quality

  Air Quality AQ Index Pollutant
Not available.

Snow Depth

Station Depth Elevation

Earthquake Activity

City Distance Mag. Time & Date
Minimum magnitude displayed is 2.5.

Coastal Water Temperatures

Place Temperature

Stations

Nearby Weather Stations

Station Location Temp. Windchill Dew Point Humidity Wind Precip. Elev Updated Type
                   

Watches & Warnings

There are currently no watches in effect.